sensor_id;sensor_type;location;lat;lon;timestamp;P1;durP1;ratioP1;P2;durP2;ratioP2
61356;SDS011;47227;46.752;23.576;2022-07-29T00:03:02;4.20;;;3.80;;
61356;SDS011;47227;46.752;23.576;2022-07-29T00:06:33;5.50;;;3.90;;
61356;SDS011;47227;46.752;23.576;2022-07-29T00:09:37;5.50;;;3.80;;
61356;SDS011;47227;46.752;23.576;2022-07-29T00:13:26;4.50;;;4.10;;
61356;SDS011;47227;46.752;23.576;2022-07-29T00:16:53;9.10;;;4.00;;
61356;SDS011;47227;46.752;23.576;2022-07-29T00:20:02;4.90;;;4.40;;
61356;SDS011;47227;46.752;23.576;2022-07-29T00:23:27;5.60;;;4.60;;
61356;SDS011;47227;46.752;23.576;2022-07-29T00:26:37;7.30;;;4.30;;
61356;SDS011;47227;46.752;23.576;2022-07-29T00:29:50;5.50;;;4.20;;
61356;SDS011;47227;46.752;23.576;2022-07-29T00:33:03;6.10;;;4.80;;
61356;SDS011;47227;46.752;23.576;2022-07-29T00:36:15;5.30;;;4.80;;
61356;SDS011;47227;46.752;23.576;2022-07-29T00:39:26;6.50;;;4.90;;
61356;SDS011;47227;46.752;23.576;2022-07-29T00:42:47;5.30;;;4.60;;
61356;SDS011;47227;46.752;23.576;2022-07-29T00:46:01;4.50;;;4.10;;
61356;SDS011;47227;46.752;23.576;2022-07-29T00:49:24;6.60;;;4.60;;
61356;SDS011;47227;46.752;23.576;2022-07-29T00:52:54;6.00;;;4.40;;
61356;SDS011;47227;46.752;23.576;2022-07-29T00:56:22;5.90;;;4.40;;
61356;SDS011;47227;46.752;23.576;2022-07-29T00:59:37;5.00;;;4.10;;
61356;SDS011;47227;46.752;23.576;2022-07-29T01:02:51;7.20;;;4.40;;
61356;SDS011;47227;46.752;23.576;2022-07-29T01:06:23;6.00;;;4.50;;
61356;SDS011;47227;46.752;23.576;2022-07-29T01:09:38;6.30;;;4.70;;
61356;SDS011;47227;46.752;23.576;2022-07-29T01:12:52;6.10;;;4.60;;
61356;SDS011;47227;46.752;23.576;2022-07-29T01:16:23;6.00;;;5.40;;
61356;SDS011;47227;46.752;23.576;2022-07-29T01:19:48;7.30;;;5.10;;
61356;SDS011;47227;46.752;23.576;2022-07-29T01:29:55;5.70;;;5.10;;
61356;SDS011;47227;46.752;23.576;2022-07-29T01:33:17;4.30;;;3.90;;
61356;SDS011;47227;46.752;23.576;2022-07-29T01:36:43;6.50;;;4.30;;
61356;SDS011;47227;46.752;23.576;2022-07-29T01:40:08;5.40;;;4.50;;
61356;SDS011;47227;46.752;23.576;2022-07-29T01:43:49;6.40;;;4.70;;
61356;SDS011;47227;46.752;23.576;2022-07-29T01:46:54;5.00;;;4.40;;
61356;SDS011;47227;46.752;23.576;2022-07-29T01:50:24;7.20;;;5.40;;
61356;SDS011;47227;46.752;23.576;2022-07-29T01:54:04;5.70;;;4.80;;
61356;SDS011;47227;46.752;23.576;2022-07-29T01:57:09;6.10;;;5.50;;
61356;SDS011;47227;46.752;23.576;2022-07-29T02:00:21;7.20;;;5.70;;
61356;SDS011;47227;46.752;23.576;2022-07-29T02:03:51;5.70;;;5.10;;
61356;SDS011;47227;46.752;23.576;2022-07-29T02:07:12;6.10;;;5.50;;
61356;SDS011;47227;46.752;23.576;2022-07-29T02:10:28;6.80;;;5.60;;
61356;SDS011;47227;46.752;23.576;2022-07-29T02:13:58;8.30;;;5.50;;
61356;SDS011;47227;46.752;23.576;2022-07-29T02:17:26;6.00;;;4.90;;
61356;SDS011;47227;46.752;23.576;2022-07-29T02:20:34;5.70;;;5.10;;
61356;SDS011;47227;46.752;23.576;2022-07-29T02:24:11;5.90;;;5.40;;
61356;SDS011;47227;46.752;23.576;2022-07-29T02:27:22;9.50;;;4.90;;
61356;SDS011;47227;46.752;23.576;2022-07-29T02:30:41;5.90;;;5.30;;
61356;SDS011;47227;46.752;23.576;2022-07-29T02:34:06;6.10;;;5.50;;
61356;SDS011;47227;46.752;23.576;2022-07-29T02:37:57;6.40;;;5.10;;
61356;SDS011;47227;46.752;23.576;2022-07-29T02:41:08;8.10;;;6.00;;
61356;SDS011;47227;46.752;23.576;2022-07-29T02:44:30;8.10;;;5.70;;
61356;SDS011;47227;46.752;23.576;2022-07-29T02:48:05;6.20;;;5.60;;
61356;SDS011;47227;46.752;23.576;2022-07-29T02:51:46;6.10;;;5.50;;
61356;SDS011;47227;46.752;23.576;2022-07-29T02:54:59;5.80;;;5.00;;
61356;SDS011;47227;46.752;23.576;2022-07-29T02:58:26;6.10;;;5.50;;
61356;SDS011;47227;46.752;23.576;2022-07-29T03:01:32;6.20;;;5.40;;
61356;SDS011;47227;46.752;23.576;2022-07-29T03:05:25;8.00;;;5.50;;
61356;SDS011;47227;46.752;23.576;2022-07-29T03:08:44;7.00;;;6.40;;
61356;SDS011;47227;46.752;23.576;2022-07-29T03:12:18;6.70;;;5.90;;
61356;SDS011;47227;46.752;23.576;2022-07-29T03:15:42;6.20;;;5.60;;
61356;SDS011;47227;46.752;23.576;2022-07-29T03:19:06;5.90;;;5.20;;
61356;SDS011;47227;46.752;23.576;2022-07-29T03:23:03;7.20;;;5.10;;
61356;SDS011;47227;46.752;23.576;2022-07-29T03:26:27;5.20;;;4.70;;
61356;SDS011;47227;46.752;23.576;2022-07-29T03:30:18;7.00;;;5.40;;
61356;SDS011;47227;46.752;23.576;2022-07-29T03:33:33;6.30;;;5.70;;
61356;SDS011;47227;46.752;23.576;2022-07-29T03:36:46;6.40;;;5.30;;
61356;SDS011;47227;46.752;23.576;2022-07-29T03:40:03;5.90;;;5.10;;
61356;SDS011;47227;46.752;23.576;2022-07-29T03:43:18;5.20;;;4.70;;
61356;SDS011;47227;46.752;23.576;2022-07-29T03:46:26;7.90;;;4.70;;
61356;SDS011;47227;46.752;23.576;2022-07-29T03:49:50;7.30;;;5.00;;
61356;SDS011;47227;46.752;23.576;2022-07-29T03:53:09;6.50;;;5.60;;
61356;SDS011;47227;46.752;23.576;2022-07-29T03:56:25;6.80;;;5.50;;
61356;SDS011;47227;46.752;23.576;2022-07-29T03:59:51;7.20;;;5.30;;
61356;SDS011;47227;46.752;23.576;2022-07-29T04:03:13;6.20;;;5.70;;
61356;SDS011;47227;46.752;23.576;2022-07-29T04:06:17;8.20;;;6.90;;
61356;SDS011;47227;46.752;23.576;2022-07-29T04:09:27;9.10;;;6.60;;
61356;SDS011;47227;46.752;23.576;2022-07-29T04:13:00;9.20;;;6.50;;
61356;SDS011;47227;46.752;23.576;2022-07-29T04:16:21;7.70;;;6.90;;
61356;SDS011;47227;46.752;23.576;2022-07-29T04:19:57;9.30;;;7.50;;
61356;SDS011;47227;46.752;23.576;2022-07-29T04:23:08;8.20;;;7.10;;
61356;SDS011;47227;46.752;23.576;2022-07-29T04:26:22;7.70;;;6.70;;
61356;SDS011;47227;46.752;23.576;2022-07-29T04:29:42;7.40;;;6.70;;
61356;SDS011;47227;46.752;23.576;2022-07-29T04:33:16;13.20;;;7.10;;
61356;SDS011;47227;46.752;23.576;2022-07-29T04:36:50;9.10;;;6.60;;
61356;SDS011;47227;46.752;23.576;2022-07-29T04:40:06;12.90;;;6.40;;
61356;SDS011;47227;46.752;23.576;2022-07-29T04:43:33;14.80;;;7.40;;
61356;SDS011;47227;46.752;23.576;2022-07-29T04:47:22;8.80;;;6.80;;
61356;SDS011;47227;46.752;23.576;2022-07-29T04:50:37;13.50;;;6.30;;
61356;SDS011;47227;46.752;23.576;2022-07-29T04:53:49;11.40;;;6.80;;
61356;SDS011;47227;46.752;23.576;2022-07-29T04:57:04;11.60;;;6.60;;
61356;SDS011;47227;46.752;23.576;2022-07-29T05:00:20;10.30;;;7.20;;
61356;SDS011;47227;46.752;23.576;2022-07-29T05:03:44;10.70;;;6.90;;
61356;SDS011;47227;46.752;23.576;2022-07-29T05:06:58;13.80;;;7.40;;
61356;SDS011;47227;46.752;23.576;2022-07-29T05:10:07;9.40;;;7.40;;
61356;SDS011;47227;46.752;23.576;2022-07-29T05:13:57;7.90;;;6.80;;
61356;SDS011;47227;46.752;23.576;2022-07-29T05:17:38;9.70;;;6.70;;
61356;SDS011;47227;46.752;23.576;2022-07-29T05:21:10;12.70;;;7.20;;
61356;SDS011;47227;46.752;23.576;2022-07-29T05:24:17;13.80;;;7.20;;
61356;SDS011;47227;46.752;23.576;2022-07-29T05:27:25;8.40;;;6.60;;
61356;SDS011;47227;46.752;23.576;2022-07-29T05:30:41;10.80;;;7.40;;
61356;SDS011;47227;46.752;23.576;2022-07-29T05:34:00;11.30;;;8.30;;
61356;SDS011;47227;46.752;23.576;2022-07-29T05:37:13;8.70;;;7.80;;
61356;SDS011;47227;46.752;23.576;2022-07-29T05:40:45;8.30;;;6.70;;
61356;SDS011;47227;46.752;23.576;2022-07-29T05:43:56;10.30;;;6.80;;
61356;SDS011;47227;46.752;23.576;2022-07-29T05:47:26;11.00;;;6.30;;
61356;SDS011;47227;46.752;23.576;2022-07-29T05:51:03;9.60;;;6.90;;
61356;SDS011;47227;46.752;23.576;2022-07-29T05:54:37;8.10;;;7.10;;
61356;SDS011;47227;46.752;23.576;2022-07-29T05:58:13;11.80;;;6.90;;
61356;SDS011;47227;46.752;23.576;2022-07-29T06:01:58;12.50;;;7.10;;
61356;SDS011;47227;46.752;23.576;2022-07-29T06:05:11;8.00;;;7.20;;
61356;SDS011;47227;46.752;23.576;2022-07-29T06:08:34;9.00;;;7.40;;
61356;SDS011;47227;46.752;23.576;2022-07-29T06:11:57;7.90;;;7.00;;
61356;SDS011;47227;46.752;23.576;2022-07-29T06:15:24;11.40;;;6.90;;
61356;SDS011;47227;46.752;23.576;2022-07-29T06:38:09;10.10;;;6.70;;
61356;SDS011;47227;46.752;23.576;2022-07-29T06:44:47;8.40;;;7.00;;
61356;SDS011;47227;46.752;23.576;2022-07-29T06:48:29;15.10;;;8.00;;
61356;SDS011;47227;46.752;23.576;2022-07-29T06:51:52;9.80;;;6.50;;
61356;SDS011;47227;46.752;23.576;2022-07-29T06:54:23;9.80;;;6.80;;
61356;SDS011;47227;46.752;23.576;2022-07-29T06:56:59;16.10;;;7.00;;
61356;SDS011;47227;46.752;23.576;2022-07-29T06:59:30;12.50;;;6.50;;
61356;SDS011;47227;46.752;23.576;2022-07-29T07:02:03;11.20;;;7.20;;
61356;SDS011;47227;46.752;23.576;2022-07-29T07:04:32;16.20;;;7.40;;
61356;SDS011;47227;46.752;23.576;2022-07-29T07:07:00;7.80;;;7.00;;
61356;SDS011;47227;46.752;23.576;2022-07-29T07:09:29;17.40;;;7.10;;
61356;SDS011;47227;46.752;23.576;2022-07-29T07:12:07;13.50;;;7.50;;
61356;SDS011;47227;46.752;23.576;2022-07-29T07:14:36;14.10;;;7.40;;
61356;SDS011;47227;46.752;23.576;2022-07-29T07:17:04;12.00;;;6.80;;
61356;SDS011;47227;46.752;23.576;2022-07-29T07:19:34;17.90;;;6.90;;
61356;SDS011;47227;46.752;23.576;2022-07-29T07:22:04;8.10;;;7.00;;
61356;SDS011;47227;46.752;23.576;2022-07-29T07:24:32;17.60;;;7.50;;
61356;SDS011;47227;46.752;23.576;2022-07-29T07:27:00;12.90;;;7.00;;
61356;SDS011;47227;46.752;23.576;2022-07-29T07:29:29;10.60;;;6.70;;
61356;SDS011;47227;46.752;23.576;2022-07-29T07:31:57;8.40;;;7.20;;
61356;SDS011;47227;46.752;23.576;2022-07-29T07:34:28;14.70;;;6.80;;
61356;SDS011;47227;46.752;23.576;2022-07-29T07:36:57;10.90;;;6.90;;
61356;SDS011;47227;46.752;23.576;2022-07-29T07:39:25;10.90;;;7.10;;
61356;SDS011;47227;46.752;23.576;2022-07-29T07:41:53;8.70;;;7.40;;
61356;SDS011;47227;46.752;23.576;2022-07-29T07:44:22;12.60;;;7.70;;
61356;SDS011;47227;46.752;23.576;2022-07-29T07:46:50;12.90;;;7.20;;
61356;SDS011;47227;46.752;23.576;2022-07-29T07:49:19;10.70;;;7.50;;
61356;SDS011;47227;46.752;23.576;2022-07-29T07:51:52;9.20;;;7.00;;
61356;SDS011;47227;46.752;23.576;2022-07-29T07:54:23;7.80;;;7.10;;
61356;SDS011;47227;46.752;23.576;2022-07-29T07:56:51;8.60;;;6.80;;
61356;SDS011;47227;46.752;23.576;2022-07-29T07:59:20;13.60;;;7.10;;
61356;SDS011;47227;46.752;23.576;2022-07-29T08:01:49;8.30;;;7.30;;
61356;SDS011;47227;46.752;23.576;2022-07-29T08:04:23;7.90;;;7.10;;
61356;SDS011;47227;46.752;23.576;2022-07-29T08:07:03;7.80;;;7.00;;
61356;SDS011;47227;46.752;23.576;2022-07-29T08:09:34;13.00;;;7.70;;
61356;SDS011;47227;46.752;23.576;2022-07-29T08:12:19;9.00;;;7.00;;
61356;SDS011;47227;46.752;23.576;2022-07-29T08:19:21;8.90;;;6.60;;
61356;SDS011;47227;46.752;23.576;2022-07-29T08:22:00;6.50;;;5.90;;
61356;SDS011;47227;46.752;23.576;2022-07-29T08:24:31;11.10;;;7.00;;
61356;SDS011;47227;46.752;23.576;2022-07-29T08:27:19;6.90;;;6.20;;
61356;SDS011;47227;46.752;23.576;2022-07-29T08:30:14;10.80;;;6.50;;
61356;SDS011;47227;46.752;23.576;2022-07-29T08:33:41;7.40;;;6.20;;
61356;SDS011;47227;46.752;23.576;2022-07-29T08:36:26;12.90;;;9.90;;
61356;SDS011;47227;46.752;23.576;2022-07-29T08:39:01;7.60;;;6.50;;
61356;SDS011;47227;46.752;23.576;2022-07-29T08:41:32;7.20;;;6.60;;
61356;SDS011;47227;46.752;23.576;2022-07-29T08:44:00;8.60;;;6.10;;
61356;SDS011;47227;46.752;23.576;2022-07-29T08:46:31;6.50;;;5.80;;
61356;SDS011;47227;46.752;23.576;2022-07-29T08:49:14;7.20;;;6.10;;
61356;SDS011;47227;46.752;23.576;2022-07-29T08:57:37;6.90;;;6.30;;
61356;SDS011;47227;46.752;23.576;2022-07-29T09:00:50;6.20;;;5.60;;
61356;SDS011;47227;46.752;23.576;2022-07-29T09:04:01;8.60;;;6.30;;
61356;SDS011;47227;46.752;23.576;2022-07-29T09:08:18;7.30;;;6.10;;
61356;SDS011;47227;46.752;23.576;2022-07-29T09:11:55;7.60;;;5.90;;
61356;SDS011;47227;46.752;23.576;2022-07-29T09:15:17;6.20;;;5.60;;
61356;SDS011;47227;46.752;23.576;2022-07-29T09:22:30;10.20;;;5.50;;
61356;SDS011;47227;46.752;23.576;2022-07-29T09:25:15;7.20;;;5.70;;
61356;SDS011;47227;46.752;23.576;2022-07-29T09:28:14;11.10;;;5.90;;
61356;SDS011;47227;46.752;23.576;2022-07-29T09:30:53;6.10;;;5.60;;
61356;SDS011;47227;46.752;23.576;2022-07-29T09:33:31;6.20;;;5.70;;
61356;SDS011;47227;46.752;23.576;2022-07-29T09:36:08;8.90;;;5.60;;
61356;SDS011;47227;46.752;23.576;2022-07-29T09:39:55;6.40;;;5.80;;
61356;SDS011;47227;46.752;23.576;2022-07-29T09:43:14;6.70;;;6.00;;
61356;SDS011;47227;46.752;23.576;2022-07-29T09:46:54;6.00;;;5.50;;
61356;SDS011;47227;46.752;23.576;2022-07-29T09:52:26;6.30;;;5.80;;
61356;SDS011;47227;46.752;23.576;2022-07-29T09:55:05;8.70;;;5.80;;
61356;SDS011;47227;46.752;23.576;2022-07-29T09:57:36;6.60;;;5.50;;
61356;SDS011;47227;46.752;23.576;2022-07-29T10:00:13;8.80;;;5.90;;
61356;SDS011;47227;46.752;23.576;2022-07-29T10:02:46;8.30;;;5.40;;
61356;SDS011;47227;46.752;23.576;2022-07-29T10:05:18;7.70;;;6.00;;
61356;SDS011;47227;46.752;23.576;2022-07-29T10:07:52;12.90;;;5.50;;
61356;SDS011;47227;46.752;23.576;2022-07-29T10:10:28;6.20;;;5.60;;
61356;SDS011;47227;46.752;23.576;2022-07-29T10:12:59;10.60;;;5.90;;
61356;SDS011;47227;46.752;23.576;2022-07-29T10:15:38;5.80;;;5.30;;
61356;SDS011;47227;46.752;23.576;2022-07-29T10:18:28;7.50;;;5.90;;
61356;SDS011;47227;46.752;23.576;2022-07-29T10:21:19;8.60;;;6.20;;
61356;SDS011;47227;46.752;23.576;2022-07-29T10:24:03;7.40;;;5.30;;
61356;SDS011;47227;46.752;23.576;2022-07-29T10:26:55;6.50;;;6.00;;
61356;SDS011;47227;46.752;23.576;2022-07-29T10:29:28;6.30;;;5.30;;
61356;SDS011;47227;46.752;23.576;2022-07-29T10:32:07;7.50;;;5.80;;
61356;SDS011;47227;46.752;23.576;2022-07-29T10:35:00;5.80;;;5.30;;
61356;SDS011;47227;46.752;23.576;2022-07-29T10:40:39;5.50;;;5.10;;
61356;SDS011;47227;46.752;23.576;2022-07-29T10:43:46;7.50;;;5.20;;
61356;SDS011;47227;46.752;23.576;2022-07-29T10:47:07;6.90;;;5.40;;
61356;SDS011;47227;46.752;23.576;2022-07-29T10:50:51;5.60;;;5.10;;
61356;SDS011;47227;46.752;23.576;2022-07-29T10:54:43;6.80;;;5.20;;
61356;SDS011;47227;46.752;23.576;2022-07-29T10:58:14;8.00;;;5.60;;
61356;SDS011;47227;46.752;23.576;2022-07-29T11:01:28;5.50;;;5.00;;
61356;SDS011;47227;46.752;23.576;2022-07-29T11:05:16;5.50;;;5.00;;
61356;SDS011;47227;46.752;23.576;2022-07-29T11:08:37;6.30;;;5.40;;
61356;SDS011;47227;46.752;23.576;2022-07-29T11:11:32;12.20;;;5.80;;
61356;SDS011;47227;46.752;23.576;2022-07-29T11:15:09;6.20;;;4.70;;
61356;SDS011;47227;46.752;23.576;2022-07-29T11:22:39;10.40;;;5.60;;
61356;SDS011;47227;46.752;23.576;2022-07-29T11:30:18;5.60;;;4.90;;
61356;SDS011;47227;46.752;23.576;2022-07-29T11:48:53;6.30;;;5.70;;
61356;SDS011;47227;46.752;23.576;2022-07-29T11:52:08;6.70;;;6.20;;
61356;SDS011;47227;46.752;23.576;2022-07-29T11:55:04;7.30;;;5.70;;
61356;SDS011;47227;46.752;23.576;2022-07-29T11:57:48;6.30;;;5.70;;
61356;SDS011;47227;46.752;23.576;2022-07-29T12:00:50;8.60;;;6.30;;
61356;SDS011;47227;46.752;23.576;2022-07-29T12:05:12;6.80;;;5.70;;
61356;SDS011;47227;46.752;23.576;2022-07-29T12:08:10;9.90;;;6.10;;
61356;SDS011;47227;46.752;23.576;2022-07-29T12:11:35;7.20;;;6.60;;
61356;SDS011;47227;46.752;23.576;2022-07-29T12:14:06;7.40;;;6.70;;
61356;SDS011;47227;46.752;23.576;2022-07-29T12:16:41;15.00;;;6.90;;
61356;SDS011;47227;46.752;23.576;2022-07-29T12:20:23;7.80;;;6.90;;
61356;SDS011;47227;46.752;23.576;2022-07-29T12:23:54;7.70;;;6.70;;
61356;SDS011;47227;46.752;23.576;2022-07-29T12:31:12;7.90;;;7.10;;
61356;SDS011;47227;46.752;23.576;2022-07-29T12:34:44;6.20;;;5.70;;
61356;SDS011;47227;46.752;23.576;2022-07-29T12:38:26;7.10;;;6.40;;
61356;SDS011;47227;46.752;23.576;2022-07-29T12:41:36;7.90;;;6.10;;
61356;SDS011;47227;46.752;23.576;2022-07-29T12:45:05;9.30;;;5.70;;
61356;SDS011;47227;46.752;23.576;2022-07-29T12:48:34;7.90;;;6.90;;
61356;SDS011;47227;46.752;23.576;2022-07-29T12:55:43;7.10;;;6.30;;
61356;SDS011;47227;46.752;23.576;2022-07-29T12:59:25;7.30;;;6.70;;
61356;SDS011;47227;46.752;23.576;2022-07-29T13:02:54;9.20;;;7.20;;
61356;SDS011;47227;46.752;23.576;2022-07-29T13:05:53;7.40;;;6.70;;
61356;SDS011;47227;46.752;23.576;2022-07-29T13:08:32;11.50;;;6.40;;
61356;SDS011;47227;46.752;23.576;2022-07-29T13:12:14;9.50;;;6.10;;
61356;SDS011;47227;46.752;23.576;2022-07-29T13:15:26;7.10;;;5.80;;
61356;SDS011;47227;46.752;23.576;2022-07-29T13:18:48;10.40;;;6.70;;
61356;SDS011;47227;46.752;23.576;2022-07-29T13:21:59;9.00;;;5.80;;
61356;SDS011;47227;46.752;23.576;2022-07-29T13:25:09;14.60;;;6.10;;
61356;SDS011;47227;46.752;23.576;2022-07-29T13:28:03;8.60;;;6.50;;
61356;SDS011;47227;46.752;23.576;2022-07-29T13:31:05;6.80;;;6.00;;
61356;SDS011;47227;46.752;23.576;2022-07-29T13:34:28;7.20;;;6.50;;
61356;SDS011;47227;46.752;23.576;2022-07-29T13:37:02;8.10;;;7.00;;
61356;SDS011;47227;46.752;23.576;2022-07-29T13:40:28;12.00;;;7.10;;
61356;SDS011;47227;46.752;23.576;2022-07-29T13:46:59;7.60;;;6.50;;
61356;SDS011;47227;46.752;23.576;2022-07-29T13:50:26;9.20;;;6.90;;
61356;SDS011;47227;46.752;23.576;2022-07-29T13:54:03;6.20;;;5.70;;
61356;SDS011;47227;46.752;23.576;2022-07-29T14:03:39;7.70;;;5.20;;
61356;SDS011;47227;46.752;23.576;2022-07-29T14:07:01;6.20;;;5.00;;
61356;SDS011;47227;46.752;23.576;2022-07-29T14:18:50;5.00;;;4.60;;
61356;SDS011;47227;46.752;23.576;2022-07-29T14:27:08;6.30;;;5.70;;
61356;SDS011;47227;46.752;23.576;2022-07-29T14:30:36;10.10;;;5.60;;
61356;SDS011;47227;46.752;23.576;2022-07-29T14:38:53;6.80;;;6.00;;
61356;SDS011;47227;46.752;23.576;2022-07-29T14:51:08;7.60;;;5.30;;
61356;SDS011;47227;46.752;23.576;2022-07-29T15:02:22;8.20;;;6.30;;
61356;SDS011;47227;46.752;23.576;2022-07-29T15:05:47;9.40;;;7.50;;
61356;SDS011;47227;46.752;23.576;2022-07-29T15:09:21;9.70;;;7.10;;
61356;SDS011;47227;46.752;23.576;2022-07-29T15:12:58;9.50;;;7.40;;
61356;SDS011;47227;46.752;23.576;2022-07-29T15:47:53;6.70;;;5.40;;
61356;SDS011;47227;46.752;23.576;2022-07-29T15:51:04;9.80;;;6.00;;
61356;SDS011;47227;46.752;23.576;2022-07-29T15:54:46;5.80;;;5.30;;
61356;SDS011;47227;46.752;23.576;2022-07-29T15:58:12;5.00;;;4.40;;
61356;SDS011;47227;46.752;23.576;2022-07-29T16:01:58;5.50;;;5.00;;
61356;SDS011;47227;46.752;23.576;2022-07-29T16:05:11;6.70;;;5.80;;
61356;SDS011;47227;46.752;23.576;2022-07-29T16:08:48;6.50;;;5.20;;
61356;SDS011;47227;46.752;23.576;2022-07-29T16:12:31;5.40;;;4.90;;
61356;SDS011;47227;46.752;23.576;2022-07-29T16:16:22;6.80;;;4.90;;
61356;SDS011;47227;46.752;23.576;2022-07-29T16:19:38;7.20;;;6.60;;
61356;SDS011;47227;46.752;23.576;2022-07-29T16:23:26;7.00;;;6.40;;
61356;SDS011;47227;46.752;23.576;2022-07-29T16:27:43;7.50;;;6.20;;
61356;SDS011;47227;46.752;23.576;2022-07-29T16:31:52;19.70;;;7.00;;
61356;SDS011;47227;46.752;23.576;2022-07-29T16:35:34;6.20;;;5.50;;
61356;SDS011;47227;46.752;23.576;2022-07-29T16:39:24;6.50;;;4.70;;
61356;SDS011;47227;46.752;23.576;2022-07-29T16:48:13;5.30;;;4.70;;
61356;SDS011;47227;46.752;23.576;2022-07-29T17:02:23;6.20;;;4.90;;
61356;SDS011;47227;46.752;23.576;2022-07-29T17:05:42;5.80;;;5.20;;
61356;SDS011;47227;46.752;23.576;2022-07-29T17:08:56;6.50;;;4.70;;
61356;SDS011;47227;46.752;23.576;2022-07-29T17:12:57;5.60;;;5.00;;
61356;SDS011;47227;46.752;23.576;2022-07-29T17:31:49;8.50;;;5.80;;
61356;SDS011;47227;46.752;23.576;2022-07-29T17:35:38;6.00;;;5.50;;
61356;SDS011;47227;46.752;23.576;2022-07-29T17:39:10;6.00;;;5.40;;
61356;SDS011;47227;46.752;23.576;2022-07-29T17:41:42;11.60;;;6.20;;
61356;SDS011;47227;46.752;23.576;2022-07-29T17:58:50;7.60;;;6.60;;
61356;SDS011;47227;46.752;23.576;2022-07-29T18:02:35;8.60;;;6.70;;
61356;SDS011;47227;46.752;23.576;2022-07-29T18:11:21;7.60;;;6.50;;
61356;SDS011;47227;46.752;23.576;2022-07-29T18:18:02;8.70;;;6.80;;
61356;SDS011;47227;46.752;23.576;2022-07-29T18:21:32;8.00;;;6.20;;
61356;SDS011;47227;46.752;23.576;2022-07-29T18:25:05;10.10;;;6.80;;
61356;SDS011;47227;46.752;23.576;2022-07-29T18:28:25;12.20;;;6.90;;
61356;SDS011;47227;46.752;23.576;2022-07-29T18:36:55;9.30;;;7.50;;
61356;SDS011;47227;46.752;23.576;2022-07-29T18:40:29;12.10;;;7.40;;
61356;SDS011;47227;46.752;23.576;2022-07-29T18:43:55;8.40;;;7.10;;
61356;SDS011;47227;46.752;23.576;2022-07-29T18:47:42;12.20;;;7.50;;
61356;SDS011;47227;46.752;23.576;2022-07-29T18:54:21;8.50;;;6.80;;
61356;SDS011;47227;46.752;23.576;2022-07-29T18:57:46;10.00;;;7.30;;
61356;SDS011;47227;46.752;23.576;2022-07-29T19:00:59;8.20;;;7.50;;
61356;SDS011;47227;46.752;23.576;2022-07-29T19:04:42;9.50;;;7.40;;
61356;SDS011;47227;46.752;23.576;2022-07-29T19:08:11;9.70;;;6.40;;
61356;SDS011;47227;46.752;23.576;2022-07-29T19:20:27;8.00;;;6.80;;
61356;SDS011;47227;46.752;23.576;2022-07-29T19:27:42;10.30;;;7.90;;
61356;SDS011;47227;46.752;23.576;2022-07-29T19:37:59;11.70;;;8.10;;
61356;SDS011;47227;46.752;23.576;2022-07-29T19:41:09;10.10;;;8.60;;
61356;SDS011;47227;46.752;23.576;2022-07-29T19:44:39;7.20;;;6.50;;
61356;SDS011;47227;46.752;23.576;2022-07-29T19:48:24;8.50;;;7.50;;
61356;SDS011;47227;46.752;23.576;2022-07-29T19:58:23;7.50;;;6.80;;
61356;SDS011;47227;46.752;23.576;2022-07-29T20:01:55;8.80;;;7.40;;
61356;SDS011;47227;46.752;23.576;2022-07-29T20:05:08;8.50;;;6.30;;
61356;SDS011;47227;46.752;23.576;2022-07-29T20:12:39;7.70;;;6.90;;
61356;SDS011;47227;46.752;23.576;2022-07-29T20:19:51;8.40;;;7.10;;
61356;SDS011;47227;46.752;23.576;2022-07-29T20:23:18;7.90;;;7.10;;
61356;SDS011;47227;46.752;23.576;2022-07-29T20:26:27;12.20;;;6.90;;
61356;SDS011;47227;46.752;23.576;2022-07-29T20:30:30;7.30;;;6.50;;
61356;SDS011;47227;46.752;23.576;2022-07-29T20:33:58;9.70;;;6.00;;
61356;SDS011;47227;46.752;23.576;2022-07-29T20:37:55;6.10;;;5.50;;
61356;SDS011;47227;46.752;23.576;2022-07-29T20:40:27;8.20;;;5.70;;
61356;SDS011;47227;46.752;23.576;2022-07-29T20:42:59;10.60;;;5.30;;
61356;SDS011;47227;46.752;23.576;2022-07-29T20:45:32;7.00;;;5.50;;
61356;SDS011;47227;46.752;23.576;2022-07-29T20:48:18;5.70;;;5.20;;
61356;SDS011;47227;46.752;23.576;2022-07-29T20:51:07;12.30;;;5.00;;
61356;SDS011;47227;46.752;23.576;2022-07-29T20:54:10;8.70;;;5.30;;
61356;SDS011;47227;46.752;23.576;2022-07-29T20:56:42;6.00;;;5.50;;
61356;SDS011;47227;46.752;23.576;2022-07-29T20:59:10;6.60;;;6.00;;
61356;SDS011;47227;46.752;23.576;2022-07-29T21:01:38;6.00;;;5.40;;
61356;SDS011;47227;46.752;23.576;2022-07-29T21:04:06;6.30;;;5.80;;
61356;SDS011;47227;46.752;23.576;2022-07-29T21:06:34;7.40;;;5.80;;
61356;SDS011;47227;46.752;23.576;2022-07-29T21:09:02;6.40;;;5.70;;
61356;SDS011;47227;46.752;23.576;2022-07-29T21:11:31;7.10;;;6.50;;
61356;SDS011;47227;46.752;23.576;2022-07-29T21:14:11;9.00;;;6.30;;
61356;SDS011;47227;46.752;23.576;2022-07-29T21:16:57;11.20;;;6.00;;
61356;SDS011;47227;46.752;23.576;2022-07-29T21:19:26;6.50;;;5.80;;
61356;SDS011;47227;46.752;23.576;2022-07-29T21:21:54;6.10;;;5.50;;
61356;SDS011;47227;46.752;23.576;2022-07-29T21:24:22;7.30;;;6.00;;
61356;SDS011;47227;46.752;23.576;2022-07-29T21:26:50;7.00;;;5.60;;
61356;SDS011;47227;46.752;23.576;2022-07-29T21:29:38;6.00;;;4.70;;
61356;SDS011;47227;46.752;23.576;2022-07-29T21:32:06;8.20;;;5.70;;
61356;SDS011;47227;46.752;23.576;2022-07-29T21:34:34;5.70;;;4.70;;
61356;SDS011;47227;46.752;23.576;2022-07-29T21:37:02;8.00;;;5.10;;
61356;SDS011;47227;46.752;23.576;2022-07-29T21:39:33;8.30;;;5.20;;
61356;SDS011;47227;46.752;23.576;2022-07-29T21:42:01;4.80;;;4.40;;
61356;SDS011;47227;46.752;23.576;2022-07-29T21:44:29;6.20;;;4.60;;
61356;SDS011;47227;46.752;23.576;2022-07-29T21:46:59;6.30;;;5.10;;
61356;SDS011;47227;46.752;23.576;2022-07-29T21:49:28;9.70;;;4.70;;
61356;SDS011;47227;46.752;23.576;2022-07-29T21:51:56;4.50;;;4.10;;
61356;SDS011;47227;46.752;23.576;2022-07-29T21:54:24;6.60;;;4.50;;
61356;SDS011;47227;46.752;23.576;2022-07-29T21:56:54;4.90;;;4.30;;
61356;SDS011;47227;46.752;23.576;2022-07-29T21:59:24;5.10;;;4.60;;
61356;SDS011;47227;46.752;23.576;2022-07-29T22:01:52;11.20;;;5.50;;
61356;SDS011;47227;46.752;23.576;2022-07-29T22:04:20;6.50;;;5.30;;
61356;SDS011;47227;46.752;23.576;2022-07-29T22:06:48;8.10;;;5.00;;
61356;SDS011;47227;46.752;23.576;2022-07-29T22:09:16;7.40;;;5.50;;
61356;SDS011;47227;46.752;23.576;2022-07-29T22:11:44;6.10;;;5.10;;
61356;SDS011;47227;46.752;23.576;2022-07-29T22:14:14;11.20;;;5.50;;
61356;SDS011;47227;46.752;23.576;2022-07-29T22:16:44;6.20;;;5.60;;
61356;SDS011;47227;46.752;23.576;2022-07-29T22:19:13;6.20;;;5.40;;
61356;SDS011;47227;46.752;23.576;2022-07-29T22:21:42;7.50;;;5.60;;
61356;SDS011;47227;46.752;23.576;2022-07-29T22:24:10;6.80;;;5.20;;
61356;SDS011;47227;46.752;23.576;2022-07-29T22:26:38;6.90;;;5.70;;
61356;SDS011;47227;46.752;23.576;2022-07-29T22:29:06;5.30;;;4.80;;
61356;SDS011;47227;46.752;23.576;2022-07-29T22:31:34;7.40;;;4.80;;
61356;SDS011;47227;46.752;23.576;2022-07-29T22:34:02;5.50;;;5.00;;
61356;SDS011;47227;46.752;23.576;2022-07-29T22:36:30;5.50;;;5.00;;
61356;SDS011;47227;46.752;23.576;2022-07-29T22:38:59;7.20;;;5.70;;
61356;SDS011;47227;46.752;23.576;2022-07-29T22:41:26;5.90;;;5.20;;
61356;SDS011;47227;46.752;23.576;2022-07-29T22:43:54;6.40;;;5.50;;